Time;durP1;ratioP1;P1;durP2;ratioP2;P2;SDS_P1;SDS_P2;PMS_P1;PMS_P2;Temp;Humidity;BMP_temperature;BMP_pressure;BME280_temperature;BME280_humidity;BME280_pressure;Samples;Min_cycle;Max_cycle;Signal;HPM_P1;HPM_P2
2024/02/27 00:01:47;;;;;;;2.67;1.10;;;14.90;99.90;;;;;;5005770;28;20467;-83
2024/02/27 00:04:13;;;;;;;3.57;2.07;;;14.90;99.90;;;;;;5014128;28;20033;-82
2024/02/27 00:06:40;;;;;;;2.08;0.88;;;14.90;99.90;;;;;;5015134;28;20038;-82
2024/02/27 00:09:08;;;;;;;1.50;1.20;;;14.90;99.90;;;;;;5013372;28;20145;-82
2024/02/27 00:11:34;;;;;;;1.52;1.10;;;14.80;99.90;;;;;;5008659;28;20495;-82
2024/02/27 00:14:00;;;;;;;2.05;1.20;;;14.90;99.90;;;;;;5013785;28;20115;-82
2024/02/27 00:16:26;;;;;;;2.13;1.20;;;14.90;99.90;;;;;;5000778;28;20060;-82
2024/02/27 00:18:52;;;;;;;2.07;1.13;;;14.90;99.90;;;;;;5006291;28;20476;-83
2024/02/27 00:21:18;;;;;;;2.27;1.07;;;14.90;99.90;;;;;;4994393;28;20038;-82
2024/02/27 00:23:44;;;;;;;1.97;1.37;;;14.90;99.90;;;;;;5007680;28;20038;-83
2024/02/27 00:26:10;;;;;;;;;;;14.90;99.90;;;;;;5007500;28;20042;-81
2024/02/27 00:28:36;;;;;;;0.90;0.80;;;14.90;99.90;;;;;;5012427;28;19963;-81
2024/02/27 00:31:02;;;;;;;1.77;1.27;;;14.90;99.90;;;;;;5002894;28;20491;-82
2024/02/27 00:33:29;;;;;;;3.20;1.35;;;14.80;99.90;;;;;;5013478;28;20018;-82
2024/02/27 00:35:54;;;;;;;2.30;1.00;;;14.90;99.90;;;;;;5003844;28;20116;-83
2024/02/27 00:38:20;;;;;;;4.03;0.60;;;14.80;99.90;;;;;;5005296;28;20034;-81
2024/02/27 00:40:46;;;;;;;1.73;1.10;;;14.80;99.90;;;;;;5013275;28;20030;-83
2024/02/27 00:43:12;;;;;;;2.80;1.10;;;14.80;99.90;;;;;;5008094;28;20034;-81
2024/02/27 00:45:37;;;;;;;0.97;0.93;;;14.80;99.90;;;;;;5007798;28;20036;-82
2024/02/27 00:48:04;;;;;;;1.43;0.87;;;14.80;99.90;;;;;;5010939;28;20081;-82
2024/02/27 00:50:30;;;;;;;0.88;0.80;;;14.80;99.90;;;;;;5009013;28;20117;-83
2024/02/27 00:52:56;;;;;;;1.38;0.98;;;14.70;99.90;;;;;;5013272;28;20403;-81
2024/02/27 00:55:22;;;;;;;2.27;1.33;;;14.80;99.90;;;;;;5012974;28;20038;-81
2024/02/27 00:57:48;;;;;;;1.83;1.20;;;14.70;99.90;;;;;;5013186;28;20062;-81
2024/02/27 01:00:14;;;;;;;3.28;1.30;;;14.70;99.90;;;;;;5008743;28;20038;-83
2024/02/27 01:02:42;;;;;;;1.17;0.90;;;14.70;99.90;;;;;;5008046;28;20133;-82
2024/02/27 01:05:08;;;;;;;2.05;0.90;;;14.70;99.90;;;;;;5012932;28;20034;-83
2024/02/27 01:07:35;;;;;;;1.05;0.90;;;14.70;99.90;;;;;;5012945;28;20022;-81
2024/02/27 01:10:01;;;;;;;1.48;0.73;;;14.70;99.90;;;;;;5007812;28;20033;-80
2024/02/27 01:12:27;;;;;;;1.10;0.70;;;14.70;99.90;;;;;;5004363;28;20034;-82
2024/02/27 01:14:53;;;;;;;2.27;0.97;;;14.70;99.90;;;;;;5005367;28;20670;-81
2024/02/27 01:17:19;;;;;;;1.57;0.90;;;14.70;99.90;;;;;;5012191;28;20098;-82
2024/02/27 01:19:45;;;;;;;1.47;0.90;;;14.70;99.90;;;;;;5006477;28;20039;-81
2024/02/27 01:22:11;;;;;;;0.75;0.75;;;14.70;99.90;;;;;;5012736;28;20041;-82
2024/02/27 01:24:38;;;;;;;2.63;1.23;;;14.70;99.90;;;;;;5006329;28;20034;-83
2024/02/27 01:27:04;;;;;;;;;;;14.60;99.90;;;;;;5000623;28;20030;-82
2024/02/27 01:29:29;;;;;;;1.95;0.85;;;14.60;99.90;;;;;;5009219;28;19979;-81
2024/02/27 01:31:55;;;;;;;0.70;0.70;;;14.60;99.90;;;;;;4998014;28;20056;-83
2024/02/27 01:34:21;;;;;;;1.93;0.90;;;14.60;99.90;;;;;;5008130;28;20030;-82
2024/02/27 01:36:47;;;;;;;3.80;1.07;;;14.60;99.90;;;;;;5004432;28;20048;-82
2024/02/27 01:39:13;;;;;;;1.33;0.70;;;14.60;99.90;;;;;;5000360;28;20053;-82
2024/02/27 01:41:48;;;;;;;1.27;0.90;;;14.60;99.90;;;;;;5007295;28;20274;-81
2024/02/27 01:44:13;;;;;;;2.15;0.70;;;14.60;99.90;;;;;;4999615;28;20268;-82
2024/02/27 01:46:40;;;;;;;1.17;0.80;;;14.60;99.90;;;;;;5005004;28;20030;-82
2024/02/27 01:49:08;;;;;;;1.10;0.90;;;14.60;99.90;;;;;;5002859;28;20033;-81
2024/02/27 01:51:34;;;;;;;1.85;0.73;;;14.60;99.90;;;;;;5005308;28;20072;-81
2024/02/27 01:54:01;;;;;;;1.07;0.70;;;14.60;99.90;;;;;;5001194;28;20037;-82
2024/02/27 01:56:28;;;;;;;1.33;0.93;;;14.60;99.90;;;;;;5013444;28;20049;-82
2024/02/27 01:58:55;;;;;;;0.85;0.80;;;14.60;99.90;;;;;;5007653;28;20044;-80
2024/02/27 02:01:22;;;;;;;1.73;1.05;;;14.60;99.90;;;;;;5002059;28;20026;-81
2024/02/27 02:03:51;;;;;;;1.80;0.70;;;14.60;99.90;;;;;;5011223;28;20033;-81
2024/02/27 02:06:17;;;;;;;1.48;1.00;;;14.50;99.90;;;;;;5004830;28;20750;-81
2024/02/27 02:08:43;;;;;;;1.08;0.70;;;14.50;99.90;;;;;;5009808;28;20496;-81
2024/02/27 02:11:12;;;;;;;2.73;0.97;;;14.50;99.90;;;;;;5005514;28;20034;-82
2024/02/27 02:13:38;;;;;;;0.90;0.70;;;14.40;99.90;;;;;;5006537;28;20722;-81
2024/02/27 02:16:04;;;;;;;1.47;1.30;;;14.40;99.90;;;;;;5003392;28;20048;-82
2024/02/27 02:18:30;;;;;;;1.40;0.82;;;14.40;99.90;;;;;;5005408;28;20468;-81
2024/02/27 02:20:56;;;;;;;1.83;1.00;;;14.40;99.90;;;;;;4998154;28;20088;-81
2024/02/27 02:23:22;;;;;;;1.10;0.93;;;14.40;99.90;;;;;;5011184;28;20042;-81
2024/02/27 02:25:48;;;;;;;1.05;0.80;;;14.40;99.90;;;;;;5005192;28;20045;-82
2024/02/27 02:28:15;;;;;;;1.67;0.90;;;14.40;99.90;;;;;;5005333;28;20030;-83
2024/02/27 02:30:41;;;;;;;1.00;0.90;;;14.40;99.90;;;;;;5003470;28;20030;-82
2024/02/27 02:33:09;;;;;;;0.70;0.60;;;14.40;99.90;;;;;;4997878;28;20058;-80
2024/02/27 02:35:34;;;;;;;2.58;0.93;;;14.40;99.90;;;;;;5007163;28;20044;-81
2024/02/27 02:38:00;;;;;;;0.90;0.70;;;14.40;99.90;;;;;;5005775;28;20034;-81
2024/02/27 02:40:26;;;;;;;1.10;1.00;;;14.40;99.90;;;;;;5006186;28;21449;-83
2024/02/27 02:42:52;;;;;;;2.37;0.80;;;14.40;99.90;;;;;;5010623;28;20041;-82
2024/02/27 02:45:18;;;;;;;2.23;0.73;;;14.40;99.90;;;;;;5010796;28;20030;-79
2024/02/27 02:47:44;;;;;;;1.00;0.77;;;14.40;99.90;;;;;;4998387;28;20034;-81
2024/02/27 02:50:12;;;;;;;1.33;1.07;;;14.40;99.90;;;;;;5003810;28;20169;-81
2024/02/27 02:52:39;;;;;;;1.95;0.70;;;14.40;99.90;;;;;;4996936;28;20042;-84
2024/02/27 02:55:07;;;;;;;2.28;0.70;;;14.30;99.90;;;;;;5004137;28;20399;-82
2024/02/27 02:57:33;;;;;;;0.90;0.70;;;14.30;99.90;;;;;;5011080;28;20189;-83
2024/02/27 02:59:59;;;;;;;2.00;0.75;;;14.30;99.90;;;;;;5010943;28;20018;-82
2024/02/27 03:02:25;;;;;;;0.70;0.70;;;14.30;99.90;;;;;;5011180;28;20511;-82
2024/02/27 03:04:51;;;;;;;2.90;0.70;;;14.30;99.90;;;;;;5010711;28;20366;-82
2024/02/27 03:07:17;;;;;;;1.30;0.80;;;14.30;99.90;;;;;;5011127;28;20452;-82
2024/02/27 03:09:43;;;;;;;1.37;0.67;;;14.30;99.90;;;;;;5010465;28;20109;-81
2024/02/27 03:12:09;;;;;;;2.67;0.73;;;14.30;99.90;;;;;;5011750;28;20022;-82
2024/02/27 03:14:37;;;;;;;1.85;0.82;;;14.30;99.90;;;;;;5011069;28;20595;-82
2024/02/27 03:17:03;;;;;;;0.68;0.50;;;14.30;99.90;;;;;;5010478;28;20034;-81
2024/02/27 03:19:30;;;;;;;1.50;0.90;;;14.30;99.90;;;;;;5007700;28;20101;-83
2024/02/27 03:21:56;;;;;;;2.88;0.77;;;14.30;99.90;;;;;;5011338;28;20050;-81
2024/02/27 03:24:22;;;;;;;1.73;0.90;;;14.30;99.90;;;;;;5011000;28;20060;-82
2024/02/27 03:26:48;;;;;;;2.38;0.98;;;14.20;99.90;;;;;;5010640;28;20053;-83
2024/02/27 03:29:14;;;;;;;1.58;0.80;;;14.20;99.90;;;;;;5009208;28;20044;-81
2024/02/27 03:31:40;;;;;;;1.77;0.98;;;14.20;99.90;;;;;;4999942;28;20031;-80
2024/02/27 03:34:06;;;;;;;1.47;1.00;;;14.20;99.90;;;;;;4995660;28;20042;-81
2024/02/27 03:36:32;;;;;;;1.10;0.87;;;14.20;99.90;;;;;;5009074;28;20037;-80
2024/02/27 03:38:57;;;;;;;2.33;0.83;;;14.20;99.90;;;;;;5009537;28;20026;-83
2024/02/27 03:41:25;;;;;;;1.50;0.77;;;14.10;99.90;;;;;;4995377;28;20066;-83
2024/02/27 03:43:51;;;;;;;1.65;1.00;;;14.10;99.90;;;;;;5000346;28;20084;-83
2024/02/27 03:46:16;;;;;;;3.43;1.00;;;14.10;99.90;;;;;;5006538;28;20036;-82
2024/02/27 03:48:42;;;;;;;2.87;0.57;;;14.10;99.90;;;;;;5003796;28;20088;-83
2024/02/27 03:51:08;;;;;;;0.80;0.70;;;14.10;99.90;;;;;;5007258;28;20450;-82
2024/02/27 03:53:33;;;;;;;2.50;0.90;;;14.10;99.90;;;;;;5010850;28;20053;-81
2024/02/27 03:55:59;;;;;;;1.70;0.97;;;14.10;99.90;;;;;;5010759;28;20034;-81
2024/02/27 03:58:25;;;;;;;1.08;0.90;;;14.10;99.90;;;;;;5008667;28;20030;-80
2024/02/27 04:00:51;;;;;;;1.73;0.90;;;14.10;99.90;;;;;;5005823;28;20052;-83
2024/02/27 04:03:17;;;;;;;3.00;1.10;;;14.10;99.90;;;;;;5014389;28;20036;-82
2024/02/27 04:05:43;;;;;;;5.10;1.07;;;14.10;99.90;;;;;;5014108;28;20120;-81
2024/02/27 04:08:08;;;;;;;1.77;0.90;;;14.00;99.90;;;;;;5012918;28;20133;-82
2024/02/27 04:10:38;;;;;;;1.90;0.90;;;14.00;99.90;;;;;;4995247;28;20036;-82
2024/02/27 04:13:04;;;;;;;1.25;0.90;;;14.00;99.90;;;;;;5008599;28;20053;-81
2024/02/27 04:15:30;;;;;;;1.58;0.80;;;14.00;99.90;;;;;;5001647;28;20026;-81
2024/02/27 04:17:57;;;;;;;1.13;1.00;;;13.90;99.90;;;;;;5013285;28;20038;-83
2024/02/27 04:20:23;;;;;;;2.15;1.30;;;14.00;99.90;;;;;;5015269;28;20383;-83
2024/02/27 04:22:49;;;;;;;1.00;0.90;;;14.00;99.90;;;;;;5005125;28;20030;-83
2024/02/27 04:25:15;;;;;;;4.25;1.40;;;13.90;99.90;;;;;;4999971;28;20129;-83
2024/02/27 04:27:41;;;;;;;3.25;1.05;;;14.00;99.90;;;;;;5003303;28;20041;-84
2024/02/27 04:30:07;;;;;;;1.30;1.13;;;14.00;99.90;;;;;;5005711;28;20025;-81
2024/02/27 04:32:34;;;;;;;2.20;1.15;;;14.00;99.90;;;;;;5000380;28;20263;-82
2024/02/27 04:35:00;;;;;;;2.58;1.05;;;13.90;99.90;;;;;;5007721;28;20081;-82
2024/02/27 04:37:26;;;;;;;1.15;1.00;;;13.90;99.90;;;;;;4996638;28;20034;-82
2024/02/27 04:39:52;;;;;;;1.70;0.80;;;13.90;99.90;;;;;;4999724;28;20037;-82
2024/02/27 04:42:18;;;;;;;2.35;1.67;;;13.90;99.90;;;;;;4993791;28;20494;-80
2024/02/27 04:44:44;;;;;;;3.40;1.20;;;13.90;99.90;;;;;;5012637;28;20033;-81
2024/02/27 04:47:10;;;;;;;4.83;1.17;;;13.90;99.90;;;;;;5005276;28;20036;-81
2024/02/27 04:49:36;;;;;;;2.30;0.95;;;13.90;99.90;;;;;;5007447;28;20404;-81
2024/02/27 04:52:02;;;;;;;1.40;1.13;;;13.90;99.90;;;;;;5013492;28;20050;-83
2024/02/27 04:54:27;;;;;;;1.20;1.10;;;13.90;99.90;;;;;;5013317;28;20033;-83
2024/02/27 04:56:54;;;;;;;4.37;1.33;;;13.80;99.90;;;;;;5014471;28;20101;-80
2024/02/27 04:59:19;;;;;;;2.83;1.42;;;13.80;99.90;;;;;;5014552;28;20026;-81
2024/02/27 05:01:49;;;;;;;1.57;0.97;;;13.80;99.90;;;;;;5009974;28;20058;-82
2024/02/27 05:04:16;;;;;;;2.60;1.20;;;13.80;99.90;;;;;;4995933;28;20030;-81
2024/02/27 05:06:41;;;;;;;;;;;13.80;99.90;;;;;;4998378;28;20120;-81
2024/02/27 05:09:07;;;;;;;4.60;1.50;;;13.80;99.90;;;;;;5002046;28;20072;-81
2024/02/27 05:11:33;;;;;;;2.73;1.13;;;13.80;99.90;;;;;;5009254;28;20045;-82
2024/02/27 05:13:59;;;;;;;2.40;1.33;;;13.80;99.90;;;;;;4997250;28;20873;-82
2024/02/27 05:16:25;;;;;;;5.18;1.58;;;13.80;99.90;;;;;;4999865;28;20044;-81
2024/02/27 05:18:51;;;;;;;2.90;1.23;;;13.70;99.90;;;;;;5009201;28;20426;-80
2024/02/27 05:21:18;;;;;;;5.60;1.57;;;13.70;99.90;;;;;;5012386;28;20026;-83
2024/02/27 05:23:45;;;;;;;2.00;1.40;;;13.70;99.90;;;;;;5012508;28;20368;-81
2024/02/27 05:26:11;;;;;;;1.92;1.50;;;13.70;99.90;;;;;;5007218;28;20104;-82
2024/02/27 05:28:37;;;;;;;1.42;1.25;;;13.70;99.90;;;;;;5008622;28;20041;-81
2024/02/27 05:31:24;;;;;;;2.63;1.40;;;13.70;99.90;;;;;;5000348;28;20026;-81
2024/02/27 05:33:51;;;;;;;2.90;1.25;;;13.60;99.90;;;;;;4993132;28;20030;-83
2024/02/27 05:36:17;;;;;;;1.50;1.13;;;13.70;99.90;;;;;;5004669;28;20088;-83
2024/02/27 05:38:43;;;;;;;2.03;1.53;;;13.70;99.90;;;;;;5012334;28;20646;-81
2024/02/27 05:41:09;;;;;;;2.95;1.70;;;13.70;99.90;;;;;;4999071;28;20479;-82
2024/02/27 05:43:35;;;;;;;3.67;1.35;;;13.70;99.90;;;;;;5012135;28;20562;-80
2024/02/27 05:46:00;;;;;;;3.17;1.87;;;13.60;99.90;;;;;;4997875;28;20053;-81
2024/02/27 05:48:26;;;;;;;4.83;1.43;;;13.60;99.90;;;;;;5005334;28;20026;-80
2024/02/27 05:50:52;;;;;;;2.83;1.77;;;13.70;99.90;;;;;;5005498;28;20026;-80
2024/02/27 05:53:17;;;;;;;3.53;2.30;;;13.60;99.90;;;;;;5005155;28;20038;-80
2024/02/27 05:55:43;;;;;;;5.37;1.93;;;13.60;99.90;;;;;;5002056;28;20034;-80
2024/02/27 05:58:09;;;;;;;5.50;2.03;;;13.60;99.90;;;;;;5008658;28;20025;-81
2024/02/27 06:00:34;;;;;;;7.37;2.10;;;13.60;99.90;;;;;;4996354;28;20121;-81
2024/02/27 06:03:00;;;;;;;4.53;1.87;;;13.60;99.90;;;;;;4996957;28;20077;-81
2024/02/27 06:05:26;;;;;;;5.80;2.10;;;13.60;99.90;;;;;;4997676;28;20038;-80
2024/02/27 06:07:51;;;;;;;19.97;3.37;;;13.60;99.90;;;;;;4996673;28;20077;-83
2024/02/27 06:10:17;;;;;;;14.80;10.50;;;13.50;99.90;;;;;;5009676;28;20030;-83
2024/02/27 06:12:43;;;;;;;17.50;8.43;;;13.60;99.90;;;;;;5028467;28;20451;-82
2024/02/27 06:15:09;;;;;;;11.63;6.18;;;13.60;99.90;;;;;;5009213;28;20030;-84
2024/02/27 06:17:35;;;;;;;22.27;15.47;;;13.60;99.90;;;;;;4995042;28;20510;-80
2024/02/27 06:20:04;;;;;;;16.50;9.73;;;13.60;99.90;;;;;;5003904;28;20263;-81
2024/02/27 06:22:31;;;;;;;23.58;9.57;;;13.60;99.90;;;;;;5012542;28;20104;-79
2024/02/27 06:24:57;;;;;;;15.38;8.90;;;13.60;99.90;;;;;;5010001;28;20030;-82
2024/02/27 06:27:22;;;;;;;17.03;9.60;;;13.70;99.90;;;;;;5011442;28;20049;-80
2024/02/27 06:29:49;;;;;;;20.47;9.37;;;13.70;99.90;;;;;;4999946;28;20045;-84
2024/02/27 06:32:15;;;;;;;31.17;23.02;;;13.70;99.90;;;;;;5010663;28;20037;-78
2024/02/27 06:34:40;;;;;;;21.27;15.65;;;13.70;99.90;;;;;;5011385;28;20037;-82
2024/02/27 06:37:07;;;;;;;18.63;14.17;;;13.70;99.90;;;;;;5010645;28;20034;-83
2024/02/27 06:39:33;;;;;;;17.50;14.65;;;13.70;99.90;;;;;;5012248;28;20105;-81
2024/02/27 06:41:59;;;;;;;19.80;14.63;;;13.70;99.90;;;;;;5010001;28;20133;-82
2024/02/27 06:44:25;;;;;;;19.30;14.77;;;13.70;99.90;;;;;;5001213;28;20034;-82
2024/02/27 06:46:51;;;;;;;19.70;12.40;;;13.70;99.90;;;;;;5012149;28;20117;-81
2024/02/27 06:49:16;;;;;;;15.60;12.57;;;13.70;99.90;;;;;;5010947;28;20120;-82
2024/02/27 06:51:44;;;;;;;32.80;12.63;;;13.70;99.90;;;;;;5011049;28;20464;-84
2024/02/27 06:54:10;;;;;;;13.10;10.77;;;13.70;99.90;;;;;;4999475;28;20022;-81
2024/02/27 06:56:36;;;;;;;15.37;10.53;;;13.80;99.90;;;;;;5011266;28;20398;-84
2024/02/27 06:59:01;;;;;;;10.47;9.33;;;13.70;99.90;;;;;;5011289;28;20089;-81
2024/02/27 07:01:27;;;;;;;12.00;9.37;;;13.80;99.90;;;;;;5010936;28;20026;-81
2024/02/27 07:03:53;;;;;;;12.23;9.07;;;13.80;99.90;;;;;;5011139;28;20395;-81
2024/02/27 07:06:19;;;;;;;14.73;8.97;;;13.80;99.90;;;;;;5010360;28;20034;-81
2024/02/27 07:08:47;;;;;;;13.47;9.70;;;13.90;99.90;;;;;;5012202;28;20054;-82
2024/02/27 07:11:14;;;;;;;10.50;8.93;;;13.90;99.90;;;;;;5012366;28;20026;-82
2024/02/27 07:13:39;;;;;;;10.48;9.23;;;13.90;99.90;;;;;;5010708;28;20030;-81
2024/02/27 07:16:05;;;;;;;12.57;8.93;;;14.00;99.90;;;;;;5012113;28;20369;-83
2024/02/27 07:18:31;;;;;;;13.20;8.50;;;14.10;99.90;;;;;;4999465;28;20034;-80
2024/02/27 07:20:57;;;;;;;11.20;8.67;;;14.10;99.90;;;;;;5011204;28;20050;-81
2024/02/27 07:23:23;;;;;;;10.85;8.20;;;14.20;99.90;;;;;;5010923;28;20026;-81
2024/02/27 07:25:49;;;;;;;10.83;7.97;;;14.20;99.90;;;;;;5010802;28;20030;-81
2024/02/27 07:28:15;;;;;;;10.07;7.43;;;14.20;99.90;;;;;;5012274;28;20083;-82
2024/02/27 07:30:40;;;;;;;12.50;8.03;;;14.30;99.90;;;;;;5010535;28;20029;-82
2024/02/27 07:33:06;;;;;;;8.20;7.00;;;14.50;99.90;;;;;;5010839;28;20026;-82
2024/02/27 07:35:32;;;;;;;8.87;6.97;;;14.70;99.90;;;;;;5007219;28;20049;-80
2024/02/27 07:37:58;;;;;;;8.03;6.70;;;15.10;99.90;;;;;;5014611;28;20044;-81
2024/02/27 07:40:23;;;;;;;8.80;6.90;;;15.60;99.90;;;;;;5014375;28;20026;-81
2024/02/27 07:42:49;;;;;;;8.67;6.57;;;16.00;99.90;;;;;;5012754;28;20025;-81
2024/02/27 07:45:16;;;;;;;8.07;6.77;;;16.30;99.90;;;;;;5014126;28;20037;-82
2024/02/27 07:47:42;;;;;;;8.18;6.22;;;16.60;99.90;;;;;;5014066;28;20032;-84
2024/02/27 07:50:09;;;;;;;9.87;6.30;;;16.80;99.90;;;;;;5004089;28;20027;-82
2024/02/27 07:52:34;;;;;;;7.68;6.05;;;17.10;99.90;;;;;;5013418;28;20068;-81
2024/02/27 07:55:00;;;;;;;5.70;5.10;;;17.40;99.90;;;;;;5008990;28;20768;-84
2024/02/27 07:57:26;;;;;;;8.97;5.90;;;17.60;99.90;;;;;;5013858;28;20030;-82
2024/02/27 07:59:52;;;;;;;6.83;6.07;;;17.80;99.90;;;;;;5008959;28;20098;-81
2024/02/27 08:02:18;;;;;;;6.38;5.53;;;18.00;99.90;;;;;;5010792;28;20029;-83
2024/02/27 08:04:43;;;;;;;5.70;4.77;;;18.40;99.90;;;;;;5006557;28;20140;-82
2024/02/27 08:07:09;;;;;;;6.20;5.40;;;18.70;99.90;;;;;;5013586;28;20022;-81
2024/02/27 08:09:35;;;;;;;7.93;5.40;;;19.00;99.90;;;;;;5000288;28;20049;-82
2024/02/27 08:12:01;;;;;;;6.93;4.73;;;19.30;99.90;;;;;;5012341;28;20263;-82
2024/02/27 08:14:30;;;;;;;7.70;4.60;;;19.50;99.90;;;;;;5004800;28;20120;-82
2024/02/27 08:16:58;;;;;;;6.45;4.82;;;19.70;99.90;;;;;;5013710;28;20041;-81
2024/02/27 08:19:24;;;;;;;8.05;4.45;;;20.00;99.90;;;;;;5012972;28;20125;-82
2024/02/27 08:21:50;;;;;;;5.45;4.63;;;20.20;99.70;;;;;;5013236;28;20057;-80
2024/02/27 08:24:16;;;;;;;7.40;4.20;;;20.40;99.50;;;;;;5012354;28;20465;-78
2024/02/27 08:26:44;;;;;;;13.87;7.67;;;20.50;99.30;;;;;;5013079;28;20042;-79
2024/02/27 08:29:09;;;;;;;13.77;7.85;;;20.80;99.00;;;;;;5012242;28;20025;-81
2024/02/27 08:31:35;;;;;;;23.00;14.80;;;20.60;98.90;;;;;;5012419;28;20460;-83
2024/02/27 08:34:04;;;;;;;27.50;16.10;;;20.80;98.80;;;;;;5011093;28;20037;-79
2024/02/27 08:36:32;;;;;;;28.85;21.52;;;21.00;98.70;;;;;;5011993;28;20079;-78
2024/02/27 08:38:57;;;;;;;41.92;26.63;;;20.80;98.70;;;;;;5012280;28;20494;-80
2024/02/27 08:41:23;;;;;;;46.43;32.20;;;20.50;99.10;;;;;;5011935;28;20034;-80
2024/02/27 08:43:49;;;;;;;48.27;36.20;;;20.70;99.00;;;;;;5013090;28;20026;-80
2024/02/27 08:46:18;;;;;;;46.30;37.00;;;21.00;98.70;;;;;;5011707;28;20052;-80
2024/02/27 08:48:45;;;;;;;49.92;37.70;;;21.00;98.60;;;;;;4995834;28;20037;-80
2024/02/27 08:51:11;;;;;;;;;;;20.80;98.80;;;;;;5006250;28;20022;-81
2024/02/27 08:53:37;;;;;;;44.58;35.45;;;20.50;99.10;;;;;;4996326;28;19916;-80
2024/02/27 08:56:04;;;;;;;44.85;35.40;;;20.40;99.20;;;;;;5005578;28;20507;-80
2024/02/27 08:58:30;;;;;;;44.67;34.38;;;20.20;99.20;;;;;;5009901;28;20055;-81
2024/02/27 09:00:56;;;;;;;39.63;32.33;;;19.90;99.50;;;;;;5003632;28;20057;-80
2024/02/27 09:03:22;;;;;;;42.80;32.70;;;19.40;99.90;;;;;;5000683;28;20022;-77
2024/02/27 09:05:48;;;;;;;41.93;32.27;;;19.40;99.90;;;;;;5012573;28;20052;-80
2024/02/27 09:08:15;;;;;;;41.60;30.30;;;19.80;99.80;;;;;;4998862;28;20054;-80
2024/02/27 09:10:43;;;;;;;36.97;31.42;;;19.30;99.90;;;;;;5006561;28;20026;-80
2024/02/27 09:13:09;;;;;;;36.58;29.42;;;18.90;99.90;;;;;;5006146;28;20084;-80
2024/02/27 09:15:35;;;;;;;35.67;28.27;;;18.60;99.90;;;;;;5012078;28;20042;-78
2024/02/27 09:18:00;;;;;;;35.27;26.67;;;18.50;99.90;;;;;;5009904;28;20113;-80
2024/02/27 09:20:27;;;;;;;38.27;28.47;;;18.70;99.90;;;;;;5011933;28;20537;-80
2024/02/27 09:22:52;;;;;;;;;;;19.10;99.90;;;;;;5012297;28;20109;-80
2024/02/27 09:25:18;;;;;;;41.70;27.15;;;19.20;99.90;;;;;;5012406;28;20426;-80
2024/02/27 09:27:44;;;;;;;41.23;28.00;;;19.10;99.90;;;;;;5023833;28;20088;-82
2024/02/27 09:30:10;;;;;;;38.78;28.23;;;19.20;99.90;;;;;;5013199;28;20033;-79
2024/02/27 09:32:36;;;;;;;34.30;26.23;;;19.20;99.90;;;;;;5006114;28;20113;-81
2024/02/27 09:35:03;;;;;;;40.70;26.03;;;19.20;99.90;;;;;;5005577;28;20144;-82
2024/02/27 09:37:28;;;;;;;;;;;19.20;99.90;;;;;;5007640;28;20029;-81
2024/02/27 09:39:56;;;;;;;30.55;23.42;;;19.10;99.90;;;;;;5010095;28;19917;-81
2024/02/27 09:42:23;;;;;;;33.40;23.08;;;19.00;99.90;;;;;;5007377;28;20031;-79
2024/02/27 09:44:52;;;;;;;29.35;22.30;;;19.00;99.90;;;;;;4991319;28;20022;-79
2024/02/27 09:47:19;;;;;;;29.05;20.92;;;19.10;99.90;;;;;;5007473;28;20105;-79
2024/02/27 09:49:47;;;;;;;30.85;21.92;;;19.10;99.90;;;;;;5005713;28;20041;-80
2024/02/27 09:52:15;;;;;;;30.23;21.17;;;19.10;99.90;;;;;;5000923;28;20034;-81
2024/02/27 09:54:42;;;;;;;27.63;20.98;;;19.20;99.90;;;;;;5005964;28;20160;-80
2024/02/27 09:57:07;;;;;;;;;;;19.60;99.90;;;;;;4992431;28;20100;-81
2024/02/27 09:59:34;;;;;;;28.37;18.93;;;19.90;99.90;;;;;;5005816;28;20414;-79
2024/02/27 10:02:10;;;;;;;24.10;18.10;;;19.90;99.90;;;;;;5011501;28;20252;-80
2024/02/27 10:04:37;;;;;;;;;;;20.00;99.90;;;;;;4997958;28;20038;-81
2024/02/27 10:07:10;;;;;;;23.05;18.45;;;19.80;99.90;;;;;;4999867;28;19917;-79
2024/02/27 10:09:46;;;;;;;24.15;17.88;;;19.70;99.90;;;;;;5003670;28;20060;-79
2024/02/27 10:12:13;;;;;;;22.27;17.07;;;19.70;99.90;;;;;;5004845;28;20030;-79
2024/02/27 10:14:41;;;;;;;24.15;16.20;;;19.70;99.90;;;;;;4996978;28;20092;-79
2024/02/27 10:17:08;;;;;;;22.20;16.80;;;19.80;99.90;;;;;;5006534;28;20025;-79
2024/02/27 10:19:36;;;;;;;22.60;16.60;;;19.90;99.90;;;;;;5011687;28;20411;-82
2024/02/27 10:22:02;;;;;;;22.33;15.63;;;21.00;99.50;;;;;;5010051;28;20033;-79
2024/02/27 10:24:28;;;;;;;20.00;16.42;;;21.80;98.70;;;;;;5010665;28;20029;-80
2024/02/27 10:26:59;;;;;;;20.83;16.02;;;22.10;98.30;;;;;;5011174;28;20048;-82
2024/02/27 10:29:28;;;;;;;18.75;15.27;;;22.30;98.00;;;;;;5011188;28;20387;-79
2024/02/27 10:31:54;;;;;;;16.52;14.55;;;22.10;98.20;;;;;;5011485;28;20030;-79
2024/02/27 10:34:22;;;;;;;18.98;14.30;;;21.90;98.30;;;;;;5010008;28;20132;-80
2024/02/27 10:37:01;;;;;;;16.60;14.38;;;21.60;98.50;;;;;;5006421;28;20030;-81
2024/02/27 10:39:27;;;;;;;18.85;13.77;;;21.90;98.50;;;;;;5008871;28;20018;-75
2024/02/27 10:41:54;;;;;;;15.10;12.73;;;22.40;98.00;;;;;;5009325;28;20029;-79
2024/02/27 10:44:20;;;;;;;;;;;22.70;97.70;;;;;;5009262;28;20487;-77
2024/02/27 10:46:47;;;;;;;16.08;12.52;;;22.50;97.70;;;;;;5009420;28;19928;-80
2024/02/27 10:49:13;;;;;;;16.83;13.13;;;22.00;98.10;;;;;;5009572;28;20383;-79
2024/02/27 10:51:41;;;;;;;16.40;12.65;;;21.10;99.10;;;;;;5007521;28;20057;-79
2024/02/27 10:54:07;;;;;;;15.32;12.27;;;20.90;99.60;;;;;;5001481;28;20038;-82
2024/02/27 10:56:34;;;;;;;14.02;11.68;;;21.10;99.30;;;;;;5003306;28;20038;-81
2024/02/27 10:59:03;;;;;;;16.23;12.20;;;21.60;99.10;;;;;;5009878;28;20034;-81
2024/02/27 11:01:31;;;;;;;14.10;11.63;;;21.90;98.80;;;;;;4999035;28;20033;-81
2024/02/27 11:04:00;;;;;;;12.32;11.13;;;22.70;98.20;;;;;;5000931;28;20033;-81
2024/02/27 11:06:28;;;;;;;14.93;11.52;;;23.60;97.20;;;;;;5002678;28;20042;-81
2024/02/27 11:09:03;;;;;;;12.70;10.63;;;24.00;96.50;;;;;;5003984;28;20046;-81
2024/02/27 11:11:30;;;;;;;14.23;10.52;;;23.20;97.10;;;;;;5000829;28;20116;-80
2024/02/27 11:14:07;;;;;;;11.98;9.93;;;22.80;97.60;;;;;;5000534;28;20438;-79
2024/02/27 11:16:36;;;;;;;13.32;10.45;;;23.10;97.50;;;;;;4989520;28;20037;-75
2024/02/27 11:19:21;;;;;;;13.55;10.20;;;23.80;96.80;;;;;;5004116;28;20022;-79
2024/02/27 11:21:52;;;;;;;11.55;10.10;;;23.60;96.80;;;;;;4999834;28;20153;-81
2024/02/27 11:24:19;;;;;;;13.35;9.75;;;23.50;96.90;;;;;;5021829;28;20026;-80
2024/02/27 11:26:45;;;;;;;11.70;9.82;;;23.90;96.70;;;;;;4993107;28;20049;-79
2024/02/27 11:29:11;;;;;;;;;;;24.60;96.00;;;;;;5009004;28;20329;-81
2024/02/27 11:31:38;;;;;;;12.68;9.65;;;24.60;95.80;;;;;;5007449;28;20231;-80
2024/02/27 11:34:06;;;;;;;11.98;9.07;;;24.70;95.60;;;;;;4993869;28;20033;-78
2024/02/27 11:36:32;;;;;;;10.27;8.60;;;24.10;96.00;;;;;;5000699;28;20038;-78
2024/02/27 11:38:58;;;;;;;11.05;8.90;;;23.20;97.00;;;;;;4994119;28;20050;-78
2024/02/27 11:41:23;;;;;;;17.40;8.88;;;22.90;97.50;;;;;;4990666;28;20428;-79
2024/02/27 11:43:53;;;;;;;9.35;8.13;;;23.10;97.30;;;;;;4990475;28;20034;-79
2024/02/27 11:46:31;;;;;;;12.43;8.07;;;23.70;96.60;;;;;;5001133;28;20046;-79
2024/02/27 11:48:58;;;;;;;15.15;10.00;;;24.00;96.10;;;;;;4993282;28;20037;-80
2024/02/27 11:51:36;;;;;;;17.02;9.35;;;24.20;95.80;;;;;;4998819;28;20026;-85
2024/02/27 11:54:01;;;;;;;14.57;9.07;;;23.90;95.90;;;;;;5009283;28;20026;-83
2024/02/27 11:56:27;;;;;;;14.57;8.23;;;23.20;96.40;;;;;;4997381;28;20042;-81
2024/02/27 11:58:53;;;;;;;15.82;8.80;;;22.80;96.80;;;;;;5006171;28;20037;-80
2024/02/27 12:01:22;;;;;;;16.20;8.57;;;22.50;97.20;;;;;;5005341;28;20046;-79
2024/02/27 12:03:48;;;;;;;13.98;8.82;;;22.30;97.60;;;;;;5007637;28;20132;-81
2024/02/27 12:06:15;;;;;;;17.45;8.65;;;22.10;98.00;;;;;;4995685;28;20399;-83
2024/02/27 12:08:59;;;;;;;15.40;8.73;;;21.90;98.30;;;;;;4994707;28;20116;-83
2024/02/27 12:11:26;;;;;;;14.75;8.95;;;21.70;98.70;;;;;;4995318;28;20042;-81
2024/02/27 12:13:52;;;;;;;15.35;9.15;;;21.70;98.90;;;;;;4999755;28;20104;-83
2024/02/27 12:16:23;;;;;;;18.70;8.77;;;21.60;99.00;;;;;;4996058;28;20484;-78
2024/02/27 12:18:49;;;;;;;18.08;8.93;;;21.50;99.20;;;;;;5009455;28;20029;-80
2024/02/27 12:21:34;;;;;;;16.98;8.95;;;21.50;99.40;;;;;;4999249;28;20084;-81
2024/02/27 12:24:14;;;;;;;18.67;8.48;;;21.50;99.50;;;;;;5013571;28;20070;-83
2024/02/27 12:26:44;;;;;;;14.40;7.82;;;21.40;99.60;;;;;;5013038;28;20041;-83
2024/02/27 12:29:10;;;;;;;20.45;9.05;;;21.20;99.80;;;;;;4998447;28;20041;-84
2024/02/27 12:31:37;;;;;;;16.35;7.82;;;21.10;99.90;;;;;;5004254;28;20034;-80
2024/02/27 12:34:05;;;;;;;22.35;8.82;;;21.00;99.90;;;;;;5009433;28;20054;-84
2024/02/27 12:36:32;;;;;;;14.23;7.70;;;20.90;99.90;;;;;;5010110;28;20033;-81
2024/02/27 12:38:58;;;;;;;14.63;7.88;;;20.80;99.90;;;;;;5012920;28;20121;-81
2024/02/27 12:41:24;;;;;;;22.67;8.02;;;20.70;99.90;;;;;;5001966;28;20120;-80